sensor_id;sensor_type;location;lat;lon;timestamp;temperature;humidity
12853;DHT22;6495;51.808;7.478;2023-07-13T00:01:15;20.00;92.70
12853;DHT22;6495;51.808;7.478;2023-07-13T00:03:44;20.00;92.70
12853;DHT22;6495;51.808;7.478;2023-07-13T00:06:13;20.00;92.70
12853;DHT22;6495;51.808;7.478;2023-07-13T00:08:41;20.00;92.70
12853;DHT22;6495;51.808;7.478;2023-07-13T00:11:10;20.00;92.70
12853;DHT22;6495;51.808;7.478;2023-07-13T00:13:38;20.00;92.80
12853;DHT22;6495;51.808;7.478;2023-07-13T00:16:08;19.90;92.80
12853;DHT22;6495;51.808;7.478;2023-07-13T00:18:39;19.90;92.80
12853;DHT22;6495;51.808;7.478;2023-07-13T00:21:07;19.90;92.90
12853;DHT22;6495;51.808;7.478;2023-07-13T00:23:38;19.80;92.90
12853;DHT22;6495;51.808;7.478;2023-07-13T00:26:09;19.80;93.30
12853;DHT22;6495;51.808;7.478;2023-07-13T00:28:40;19.70;92.90
12853;DHT22;6495;51.808;7.478;2023-07-13T00:31:09;19.70;93.10
12853;DHT22;6495;51.808;7.478;2023-07-13T00:33:39;19.70;93.30
12853;DHT22;6495;51.808;7.478;2023-07-13T00:36:09;19.60;93.50
12853;DHT22;6495;51.808;7.478;2023-07-13T00:38:38;19.50;93.90
12853;DHT22;6495;51.808;7.478;2023-07-13T00:41:07;19.40;93.70
12853;DHT22;6495;51.808;7.478;2023-07-13T00:43:36;19.30;93.70
12853;DHT22;6495;51.808;7.478;2023-07-13T00:46:18;19.30;93.90
12853;DHT22;6495;51.808;7.478;2023-07-13T00:48:51;19.20;94.10
12853;DHT22;6495;51.808;7.478;2023-07-13T00:51:31;19.20;94.10
12853;DHT22;6495;51.808;7.478;2023-07-13T00:54:06;19.10;94.20
12853;DHT22;6495;51.808;7.478;2023-07-13T00:56:38;19.10;94.40
12853;DHT22;6495;51.808;7.478;2023-07-13T00:59:08;19.10;94.50
12853;DHT22;6495;51.808;7.478;2023-07-13T01:01:39;19.00;94.50
12853;DHT22;6495;51.808;7.478;2023-07-13T01:04:10;19.00;94.70
12853;DHT22;6495;51.808;7.478;2023-07-13T01:06:40;19.00;94.80
12853;DHT22;6495;51.808;7.478;2023-07-13T01:09:11;19.00;95.00
12853;DHT22;6495;51.808;7.478;2023-07-13T01:11:40;18.90;94.90
12853;DHT22;6495;51.808;7.478;2023-07-13T01:14:09;18.90;95.00
12853;DHT22;6495;51.808;7.478;2023-07-13T01:16:39;18.90;95.10
12853;DHT22;6495;51.808;7.478;2023-07-13T01:19:21;18.90;95.30
12853;DHT22;6495;51.808;7.478;2023-07-13T01:22:05;18.80;95.60
12853;DHT22;6495;51.808;7.478;2023-07-13T01:24:39;18.70;95.50
12853;DHT22;6495;51.808;7.478;2023-07-13T01:27:10;18.70;95.60
12853;DHT22;6495;51.808;7.478;2023-07-13T01:29:41;18.60;95.60
12853;DHT22;6495;51.808;7.478;2023-07-13T01:32:15;18.60;95.60
12853;DHT22;6495;51.808;7.478;2023-07-13T01:34:50;18.60;96.10
12853;DHT22;6495;51.808;7.478;2023-07-13T01:37:23;18.60;95.80
12853;DHT22;6495;51.808;7.478;2023-07-13T01:39:52;18.60;95.80
12853;DHT22;6495;51.808;7.478;2023-07-13T01:42:21;18.60;95.90
12853;DHT22;6495;51.808;7.478;2023-07-13T01:44:49;18.50;95.80
12853;DHT22;6495;51.808;7.478;2023-07-13T01:47:17;18.50;95.80
12853;DHT22;6495;51.808;7.478;2023-07-13T01:49:46;18.50;96.00
12853;DHT22;6495;51.808;7.478;2023-07-13T01:52:14;18.40;95.90
12853;DHT22;6495;51.808;7.478;2023-07-13T01:54:44;18.40;96.30
12853;DHT22;6495;51.808;7.478;2023-07-13T01:57:12;18.40;96.40
12853;DHT22;6495;51.808;7.478;2023-07-13T01:59:40;18.40;96.10
12853;DHT22;6495;51.808;7.478;2023-07-13T02:02:09;18.30;96.10
12853;DHT22;6495;51.808;7.478;2023-07-13T02:04:37;18.20;96.10
12853;DHT22;6495;51.808;7.478;2023-07-13T02:07:06;18.20;96.10
12853;DHT22;6495;51.808;7.478;2023-07-13T02:09:36;18.20;96.10
12853;DHT22;6495;51.808;7.478;2023-07-13T02:12:07;18.20;96.20
12853;DHT22;6495;51.808;7.478;2023-07-13T02:14:35;18.10;96.10
12853;DHT22;6495;51.808;7.478;2023-07-13T02:17:04;18.10;96.20
12853;DHT22;6495;51.808;7.478;2023-07-13T02:19:32;18.10;96.30
12853;DHT22;6495;51.808;7.478;2023-07-13T02:22:01;18.10;96.30
12853;DHT22;6495;51.808;7.478;2023-07-13T02:24:29;18.00;96.30
12853;DHT22;6495;51.808;7.478;2023-07-13T02:26:57;18.00;96.50
12853;DHT22;6495;51.808;7.478;2023-07-13T02:29:27;18.00;96.50
12853;DHT22;6495;51.808;7.478;2023-07-13T02:31:56;17.90;96.40
12853;DHT22;6495;51.808;7.478;2023-07-13T02:34:24;17.90;96.50
12853;DHT22;6495;51.808;7.478;2023-07-13T02:36:52;17.90;96.60
12853;DHT22;6495;51.808;7.478;2023-07-13T02:39:20;17.90;96.60
12853;DHT22;6495;51.808;7.478;2023-07-13T02:41:49;17.90;96.60
12853;DHT22;6495;51.808;7.478;2023-07-13T02:44:17;17.80;96.70
12853;DHT22;6495;51.808;7.478;2023-07-13T02:46:47;17.80;96.80
12853;DHT22;6495;51.808;7.478;2023-07-13T02:49:15;17.80;96.70
12853;DHT22;6495;51.808;7.478;2023-07-13T02:51:43;17.80;96.90
12853;DHT22;6495;51.808;7.478;2023-07-13T02:54:12;17.70;96.90
12853;DHT22;6495;51.808;7.478;2023-07-13T02:56:41;17.70;96.80
12853;DHT22;6495;51.808;7.478;2023-07-13T02:59:10;17.70;96.90
12853;DHT22;6495;51.808;7.478;2023-07-13T03:01:39;17.70;96.90
12853;DHT22;6495;51.808;7.478;2023-07-13T03:04:08;17.60;96.90
12853;DHT22;6495;51.808;7.478;2023-07-13T03:06:37;17.70;97.00
12853;DHT22;6495;51.808;7.478;2023-07-13T03:09:05;17.60;97.00
12853;DHT22;6495;51.808;7.478;2023-07-13T03:11:38;17.60;97.10
12853;DHT22;6495;51.808;7.478;2023-07-13T03:14:27;17.60;97.20
12853;DHT22;6495;51.808;7.478;2023-07-13T03:16:56;17.50;97.30
12853;DHT22;6495;51.808;7.478;2023-07-13T03:19:29;17.50;97.30
12853;DHT22;6495;51.808;7.478;2023-07-13T03:21:57;17.50;97.40
12853;DHT22;6495;51.808;7.478;2023-07-13T03:24:26;17.40;97.50
12853;DHT22;6495;51.808;7.478;2023-07-13T03:26:55;17.40;97.50
12853;DHT22;6495;51.808;7.478;2023-07-13T03:29:24;17.40;97.60
12853;DHT22;6495;51.808;7.478;2023-07-13T03:31:52;17.40;97.60
12853;DHT22;6495;51.808;7.478;2023-07-13T03:34:22;17.40;97.60
12853;DHT22;6495;51.808;7.478;2023-07-13T03:36:53;17.30;97.60
12853;DHT22;6495;51.808;7.478;2023-07-13T03:39:22;17.30;97.60
12853;DHT22;6495;51.808;7.478;2023-07-13T03:41:54;17.30;97.60
12853;DHT22;6495;51.808;7.478;2023-07-13T03:44:23;17.30;97.60
12853;DHT22;6495;51.808;7.478;2023-07-13T03:46:56;17.30;97.70
12853;DHT22;6495;51.808;7.478;2023-07-13T03:49:24;17.30;97.80
12853;DHT22;6495;51.808;7.478;2023-07-13T03:51:54;17.30;97.80
12853;DHT22;6495;51.808;7.478;2023-07-13T03:54:23;17.30;97.80
12853;DHT22;6495;51.808;7.478;2023-07-13T03:56:52;17.20;97.80
12853;DHT22;6495;51.808;7.478;2023-07-13T03:59:21;17.20;97.90
12853;DHT22;6495;51.808;7.478;2023-07-13T04:01:50;17.20;97.90
12853;DHT22;6495;51.808;7.478;2023-07-13T04:04:19;17.20;97.90
12853;DHT22;6495;51.808;7.478;2023-07-13T04:06:47;17.20;97.80
12853;DHT22;6495;51.808;7.478;2023-07-13T04:09:17;17.20;98.00
12853;DHT22;6495;51.808;7.478;2023-07-13T04:11:46;17.10;97.90
12853;DHT22;6495;51.808;7.478;2023-07-13T04:14:14;17.10;97.90
12853;DHT22;6495;51.808;7.478;2023-07-13T04:16:42;17.10;98.00
12853;DHT22;6495;51.808;7.478;2023-07-13T04:19:13;17.10;98.00
12853;DHT22;6495;51.808;7.478;2023-07-13T04:21:41;17.10;98.00
12853;DHT22;6495;51.808;7.478;2023-07-13T04:24:11;17.10;98.10
12853;DHT22;6495;51.808;7.478;2023-07-13T04:26:41;17.10;98.10
12853;DHT22;6495;51.808;7.478;2023-07-13T04:29:09;17.10;98.30
12853;DHT22;6495;51.808;7.478;2023-07-13T04:31:38;17.10;98.40
12853;DHT22;6495;51.808;7.478;2023-07-13T04:34:06;17.10;98.40
12853;DHT22;6495;51.808;7.478;2023-07-13T04:36:34;17.10;98.40
12853;DHT22;6495;51.808;7.478;2023-07-13T04:39:04;17.10;98.50
12853;DHT22;6495;51.808;7.478;2023-07-13T04:41:33;17.10;98.50
12853;DHT22;6495;51.808;7.478;2023-07-13T04:44:03;17.10;98.60
12853;DHT22;6495;51.808;7.478;2023-07-13T04:46:31;17.10;98.60
12853;DHT22;6495;51.808;7.478;2023-07-13T04:49:00;17.20;98.60
12853;DHT22;6495;51.808;7.478;2023-07-13T04:51:30;17.20;98.60
12853;DHT22;6495;51.808;7.478;2023-07-13T04:53:59;17.20;98.60
12853;DHT22;6495;51.808;7.478;2023-07-13T04:56:27;17.10;98.60
12853;DHT22;6495;51.808;7.478;2023-07-13T04:58:57;17.20;98.70
12853;DHT22;6495;51.808;7.478;2023-07-13T05:01:27;17.20;98.70
12853;DHT22;6495;51.808;7.478;2023-07-13T05:03:55;17.20;99.30
12853;DHT22;6495;51.808;7.478;2023-07-13T05:06:26;17.20;99.00
12853;DHT22;6495;51.808;7.478;2023-07-13T05:08:55;17.20;99.20
12853;DHT22;6495;51.808;7.478;2023-07-13T05:11:24;17.20;99.30
12853;DHT22;6495;51.808;7.478;2023-07-13T05:13:52;17.20;99.20
12853;DHT22;6495;51.808;7.478;2023-07-13T05:16:20;17.30;99.50
12853;DHT22;6495;51.808;7.478;2023-07-13T05:18:50;17.30;99.50
12853;DHT22;6495;51.808;7.478;2023-07-13T05:21:19;17.30;99.50
12853;DHT22;6495;51.808;7.478;2023-07-13T05:23:47;17.30;99.60
12853;DHT22;6495;51.808;7.478;2023-07-13T05:26:16;17.30;99.70
12853;DHT22;6495;51.808;7.478;2023-07-13T05:28:44;17.30;99.70
12853;DHT22;6495;51.808;7.478;2023-07-13T05:31:13;17.30;99.80
12853;DHT22;6495;51.808;7.478;2023-07-13T05:33:42;17.40;99.90
12853;DHT22;6495;51.808;7.478;2023-07-13T05:36:11;17.40;99.90
12853;DHT22;6495;51.808;7.478;2023-07-13T05:38:40;17.40;99.90
12853;DHT22;6495;51.808;7.478;2023-07-13T05:41:08;17.40;99.90
12853;DHT22;6495;51.808;7.478;2023-07-13T05:43:37;17.40;99.90
12853;DHT22;6495;51.808;7.478;2023-07-13T05:46:05;17.50;99.90
12853;DHT22;6495;51.808;7.478;2023-07-13T05:48:33;17.50;99.90
12853;DHT22;6495;51.808;7.478;2023-07-13T05:51:02;17.50;99.90
12853;DHT22;6495;51.808;7.478;2023-07-13T05:53:31;17.50;99.90
12853;DHT22;6495;51.808;7.478;2023-07-13T05:56:02;17.60;99.90
12853;DHT22;6495;51.808;7.478;2023-07-13T05:58:31;17.60;99.90
12853;DHT22;6495;51.808;7.478;2023-07-13T06:01:00;17.60;99.90
12853;DHT22;6495;51.808;7.478;2023-07-13T06:03:30;17.70;99.90
12853;DHT22;6495;51.808;7.478;2023-07-13T06:05:59;17.70;99.90
12853;DHT22;6495;51.808;7.478;2023-07-13T06:08:28;17.80;99.90
12853;DHT22;6495;51.808;7.478;2023-07-13T06:11:03;17.90;99.90
12853;DHT22;6495;51.808;7.478;2023-07-13T06:13:33;18.00;99.90
12853;DHT22;6495;51.808;7.478;2023-07-13T06:16:02;18.10;99.90
12853;DHT22;6495;51.808;7.478;2023-07-13T06:18:32;18.10;99.90
12853;DHT22;6495;51.808;7.478;2023-07-13T06:21:05;18.20;99.90
12853;DHT22;6495;51.808;7.478;2023-07-13T06:23:35;18.30;99.90
12853;DHT22;6495;51.808;7.478;2023-07-13T06:26:05;18.40;99.90
12853;DHT22;6495;51.808;7.478;2023-07-13T06:28:35;18.50;99.90
12853;DHT22;6495;51.808;7.478;2023-07-13T06:31:07;18.60;99.90
12853;DHT22;6495;51.808;7.478;2023-07-13T06:33:38;18.70;99.90
12853;DHT22;6495;51.808;7.478;2023-07-13T06:36:07;18.90;99.90
12853;DHT22;6495;51.808;7.478;2023-07-13T06:38:36;19.00;99.90
12853;DHT22;6495;51.808;7.478;2023-07-13T06:41:08;19.10;99.90
12853;DHT22;6495;51.808;7.478;2023-07-13T06:43:37;19.10;99.90
12853;DHT22;6495;51.808;7.478;2023-07-13T06:46:05;19.20;99.90
12853;DHT22;6495;51.808;7.478;2023-07-13T06:48:34;19.30;99.90
12853;DHT22;6495;51.808;7.478;2023-07-13T06:51:03;19.30;99.90
12853;DHT22;6495;51.808;7.478;2023-07-13T06:53:31;19.40;99.90
12853;DHT22;6495;51.808;7.478;2023-07-13T06:56:00;19.40;99.90
12853;DHT22;6495;51.808;7.478;2023-07-13T06:58:30;19.40;99.90
12853;DHT22;6495;51.808;7.478;2023-07-13T07:00:58;19.50;99.90
12853;DHT22;6495;51.808;7.478;2023-07-13T07:03:26;19.50;99.90
12853;DHT22;6495;51.808;7.478;2023-07-13T07:06:00;19.60;99.90
12853;DHT22;6495;51.808;7.478;2023-07-13T07:08:29;19.60;99.90
12853;DHT22;6495;51.808;7.478;2023-07-13T07:10:57;19.70;99.90
12853;DHT22;6495;51.808;7.478;2023-07-13T07:13:26;19.80;99.90
12853;DHT22;6495;51.808;7.478;2023-07-13T07:15:56;19.80;99.90
12853;DHT22;6495;51.808;7.478;2023-07-13T07:18:26;19.90;99.90
12853;DHT22;6495;51.808;7.478;2023-07-13T07:20:55;20.10;99.90
12853;DHT22;6495;51.808;7.478;2023-07-13T07:23:23;20.20;99.90
12853;DHT22;6495;51.808;7.478;2023-07-13T07:25:52;20.20;99.90
12853;DHT22;6495;51.808;7.478;2023-07-13T07:28:20;20.30;99.90
12853;DHT22;6495;51.808;7.478;2023-07-13T07:30:53;20.30;99.90
12853;DHT22;6495;51.808;7.478;2023-07-13T07:33:26;20.40;99.90
12853;DHT22;6495;51.808;7.478;2023-07-13T07:35:55;20.50;99.90
12853;DHT22;6495;51.808;7.478;2023-07-13T07:38:26;20.50;99.90
12853;DHT22;6495;51.808;7.478;2023-07-13T07:40:55;20.60;99.90
12853;DHT22;6495;51.808;7.478;2023-07-13T07:43:26;20.60;99.90
12853;DHT22;6495;51.808;7.478;2023-07-13T07:45:54;20.70;99.90
12853;DHT22;6495;51.808;7.478;2023-07-13T07:48:23;20.80;99.90
12853;DHT22;6495;51.808;7.478;2023-07-13T07:50:53;20.90;99.90
12853;DHT22;6495;51.808;7.478;2023-07-13T07:53:21;21.00;99.90
12853;DHT22;6495;51.808;7.478;2023-07-13T07:55:49;21.10;99.90
12853;DHT22;6495;51.808;7.478;2023-07-13T07:58:20;21.20;99.90
12853;DHT22;6495;51.808;7.478;2023-07-13T08:00:52;21.30;99.90
12853;DHT22;6495;51.808;7.478;2023-07-13T08:03:23;21.30;99.90
12853;DHT22;6495;51.808;7.478;2023-07-13T08:05:56;21.40;99.90
12853;DHT22;6495;51.808;7.478;2023-07-13T08:08:44;21.40;99.90
12853;DHT22;6495;51.808;7.478;2023-07-13T08:11:13;21.50;99.90
12853;DHT22;6495;51.808;7.478;2023-07-13T08:13:44;21.50;99.90
12853;DHT22;6495;51.808;7.478;2023-07-13T08:16:12;21.50;99.90
12853;DHT22;6495;51.808;7.478;2023-07-13T08:18:41;21.50;99.90
12853;DHT22;6495;51.808;7.478;2023-07-13T08:21:11;21.50;99.90
12853;DHT22;6495;51.808;7.478;2023-07-13T08:23:39;21.50;99.90
12853;DHT22;6495;51.808;7.478;2023-07-13T08:26:09;21.50;99.90
12853;DHT22;6495;51.808;7.478;2023-07-13T08:28:37;21.50;99.90
12853;DHT22;6495;51.808;7.478;2023-07-13T08:31:07;21.60;99.90
12853;DHT22;6495;51.808;7.478;2023-07-13T08:33:36;21.60;99.90
12853;DHT22;6495;51.808;7.478;2023-07-13T08:36:07;21.60;99.90
12853;DHT22;6495;51.808;7.478;2023-07-13T08:38:37;21.70;99.90
12853;DHT22;6495;51.808;7.478;2023-07-13T08:41:12;21.80;99.90
12853;DHT22;6495;51.808;7.478;2023-07-13T08:43:47;21.90;99.90
12853;DHT22;6495;51.808;7.478;2023-07-13T08:46:21;22.00;99.90
12853;DHT22;6495;51.808;7.478;2023-07-13T08:48:57;22.20;99.90
12853;DHT22;6495;51.808;7.478;2023-07-13T08:51:39;22.30;99.90
12853;DHT22;6495;51.808;7.478;2023-07-13T08:54:21;22.40;99.60
12853;DHT22;6495;51.808;7.478;2023-07-13T08:56:56;22.40;99.50
12853;DHT22;6495;51.808;7.478;2023-07-13T08:59:28;22.40;99.50
12853;DHT22;6495;51.808;7.478;2023-07-13T09:02:18;22.40;99.50
12853;DHT22;6495;51.808;7.478;2023-07-13T09:04:56;22.50;99.30
12853;DHT22;6495;51.808;7.478;2023-07-13T09:07:42;22.50;99.30
12853;DHT22;6495;51.808;7.478;2023-07-13T09:10:28;22.60;99.10
12853;DHT22;6495;51.808;7.478;2023-07-13T09:13:07;22.60;99.10
12853;DHT22;6495;51.808;7.478;2023-07-13T09:15:48;22.60;99.00
12853;DHT22;6495;51.808;7.478;2023-07-13T09:18:23;22.60;98.90
12853;DHT22;6495;51.808;7.478;2023-07-13T09:21:00;22.70;98.90
12853;DHT22;6495;51.808;7.478;2023-07-13T09:23:32;22.70;99.10
12853;DHT22;6495;51.808;7.478;2023-07-13T09:26:05;22.90;99.50
12853;DHT22;6495;51.808;7.478;2023-07-13T09:28:41;23.00;99.10
12853;DHT22;6495;51.808;7.478;2023-07-13T09:31:14;23.00;99.10
12853;DHT22;6495;51.808;7.478;2023-07-13T09:33:46;23.10;98.90
12853;DHT22;6495;51.808;7.478;2023-07-13T09:36:19;23.20;98.70
12853;DHT22;6495;51.808;7.478;2023-07-13T09:38:57;23.30;98.40
12853;DHT22;6495;51.808;7.478;2023-07-13T09:41:36;23.30;98.10
12853;DHT22;6495;51.808;7.478;2023-07-13T09:44:11;23.40;98.00
12853;DHT22;6495;51.808;7.478;2023-07-13T09:46:44;23.50;98.00
12853;DHT22;6495;51.808;7.478;2023-07-13T09:49:14;23.40;97.80
12853;DHT22;6495;51.808;7.478;2023-07-13T09:51:43;23.50;97.80
12853;DHT22;6495;51.808;7.478;2023-07-13T09:54:18;23.50;97.70
12853;DHT22;6495;51.808;7.478;2023-07-13T09:56:54;23.50;97.50
12853;DHT22;6495;51.808;7.478;2023-07-13T09:59:27;23.50;97.40
12853;DHT22;6495;51.808;7.478;2023-07-13T10:01:57;23.50;97.40
12853;DHT22;6495;51.808;7.478;2023-07-13T10:04:30;23.50;97.30
12853;DHT22;6495;51.808;7.478;2023-07-13T10:07:06;23.50;97.20
12853;DHT22;6495;51.808;7.478;2023-07-13T10:09:54;23.50;97.40
12853;DHT22;6495;51.808;7.478;2023-07-13T10:12:25;23.60;97.30
12853;DHT22;6495;51.808;7.478;2023-07-13T10:14:56;23.60;97.30
12853;DHT22;6495;51.808;7.478;2023-07-13T10:17:46;23.60;97.30
12853;DHT22;6495;51.808;7.478;2023-07-13T10:20:17;23.60;97.20
12853;DHT22;6495;51.808;7.478;2023-07-13T10:22:53;23.60;97.10
12853;DHT22;6495;51.808;7.478;2023-07-13T10:25:26;23.70;97.10
12853;DHT22;6495;51.808;7.478;2023-07-13T10:28:02;23.70;97.10
12853;DHT22;6495;51.808;7.478;2023-07-13T10:30:41;23.80;96.80
12853;DHT22;6495;51.808;7.478;2023-07-13T10:33:13;23.80;96.80
12853;DHT22;6495;51.808;7.478;2023-07-13T10:35:44;23.90;96.60
12853;DHT22;6495;51.808;7.478;2023-07-13T10:38:19;24.00;96.60
12853;DHT22;6495;51.808;7.478;2023-07-13T10:40:56;24.00;96.40
12853;DHT22;6495;51.808;7.478;2023-07-13T10:43:32;24.10;96.10
12853;DHT22;6495;51.808;7.478;2023-07-13T10:46:04;24.10;95.90
12853;DHT22;6495;51.808;7.478;2023-07-13T10:48:35;24.10;95.80
12853;DHT22;6495;51.808;7.478;2023-07-13T10:51:08;24.10;95.70
12853;DHT22;6495;51.808;7.478;2023-07-13T10:53:39;24.20;95.60
12853;DHT22;6495;51.808;7.478;2023-07-13T10:56:22;24.20;95.50
12853;DHT22;6495;51.808;7.478;2023-07-13T10:59:09;24.20;94.80
12853;DHT22;6495;51.808;7.478;2023-07-13T11:01:50;24.20;94.50
12853;DHT22;6495;51.808;7.478;2023-07-13T11:04:23;24.20;94.80
12853;DHT22;6495;51.808;7.478;2023-07-13T11:06:57;24.20;95.00
12853;DHT22;6495;51.808;7.478;2023-07-13T11:09:38;24.20;94.40
12853;DHT22;6495;51.808;7.478;2023-07-13T11:12:10;24.30;94.10
12853;DHT22;6495;51.808;7.478;2023-07-13T11:15:11;24.30;94.20
12853;DHT22;6495;51.808;7.478;2023-07-13T11:17:49;24.40;94.00
12853;DHT22;6495;51.808;7.478;2023-07-13T11:20:24;24.40;93.80
12853;DHT22;6495;51.808;7.478;2023-07-13T11:23:26;24.40;94.20
12853;DHT22;6495;51.808;7.478;2023-07-13T11:25:58;24.50;93.50
12853;DHT22;6495;51.808;7.478;2023-07-13T11:28:31;24.60;94.10
12853;DHT22;6495;51.808;7.478;2023-07-13T11:31:12;24.60;93.90
12853;DHT22;6495;51.808;7.478;2023-07-13T11:33:56;24.60;93.90
12853;DHT22;6495;51.808;7.478;2023-07-13T11:36:31;24.70;93.30
12853;DHT22;6495;51.808;7.478;2023-07-13T11:39:16;24.80;93.60
12853;DHT22;6495;51.808;7.478;2023-07-13T11:41:50;24.80;93.20
12853;DHT22;6495;51.808;7.478;2023-07-13T11:44:24;24.80;93.00
12853;DHT22;6495;51.808;7.478;2023-07-13T11:46:57;24.80;92.80
12853;DHT22;6495;51.808;7.478;2023-07-13T11:49:31;24.70;92.60
12853;DHT22;6495;51.808;7.478;2023-07-13T11:52:11;24.60;92.20
12853;DHT22;6495;51.808;7.478;2023-07-13T11:54:47;24.60;92.40
12853;DHT22;6495;51.808;7.478;2023-07-13T11:57:24;24.70;92.50
12853;DHT22;6495;51.808;7.478;2023-07-13T11:59:55;24.70;92.80
12853;DHT22;6495;51.808;7.478;2023-07-13T12:02:29;24.70;92.30
12853;DHT22;6495;51.808;7.478;2023-07-13T12:05:02;24.70;92.00
12853;DHT22;6495;51.808;7.478;2023-07-13T12:07:33;24.70;92.10
12853;DHT22;6495;51.808;7.478;2023-07-13T12:10:02;24.70;92.10
12853;DHT22;6495;51.808;7.478;2023-07-13T12:12:31;24.70;91.80
12853;DHT22;6495;51.808;7.478;2023-07-13T12:15:00;24.70;91.40
12853;DHT22;6495;51.808;7.478;2023-07-13T12:17:29;24.70;91.50
12853;DHT22;6495;51.808;7.478;2023-07-13T12:19:58;24.70;91.40
12853;DHT22;6495;51.808;7.478;2023-07-13T12:22:27;24.60;91.30
12853;DHT22;6495;51.808;7.478;2023-07-13T12:24:56;24.60;91.20
12853;DHT22;6495;51.808;7.478;2023-07-13T12:27:26;24.70;91.30
12853;DHT22;6495;51.808;7.478;2023-07-13T12:29:59;24.70;91.20
12853;DHT22;6495;51.808;7.478;2023-07-13T12:32:31;24.80;90.90
12853;DHT22;6495;51.808;7.478;2023-07-13T12:35:13;24.80;90.90
12853;DHT22;6495;51.808;7.478;2023-07-13T12:37:47;24.80;90.80
12853;DHT22;6495;51.808;7.478;2023-07-13T12:40:17;24.80;90.70
12853;DHT22;6495;51.808;7.478;2023-07-13T12:42:48;24.80;90.50
12853;DHT22;6495;51.808;7.478;2023-07-13T12:45:20;24.80;90.20
12853;DHT22;6495;51.808;7.478;2023-07-13T12:47:54;24.80;90.00
12853;DHT22;6495;51.808;7.478;2023-07-13T12:50:30;24.70;89.90
12853;DHT22;6495;51.808;7.478;2023-07-13T12:53:29;24.60;89.20
12853;DHT22;6495;51.808;7.478;2023-07-13T12:56:01;24.60;88.80
12853;DHT22;6495;51.808;7.478;2023-07-13T12:58:37;24.60;89.90
12853;DHT22;6495;51.808;7.478;2023-07-13T13:01:09;24.60;90.10
12853;DHT22;6495;51.808;7.478;2023-07-13T13:03:47;24.60;90.10
12853;DHT22;6495;51.808;7.478;2023-07-13T13:06:24;24.60;90.10
12853;DHT22;6495;51.808;7.478;2023-07-13T13:08:55;24.60;90.20
12853;DHT22;6495;51.808;7.478;2023-07-13T13:11:26;24.60;90.20
12853;DHT22;6495;51.808;7.478;2023-07-13T13:13:57;24.50;90.00
12853;DHT22;6495;51.808;7.478;2023-07-13T13:16:31;24.30;90.20
12853;DHT22;6495;51.808;7.478;2023-07-13T13:19:12;24.20;90.90
12853;DHT22;6495;51.808;7.478;2023-07-13T13:21:44;24.00;92.90
12853;DHT22;6495;51.808;7.478;2023-07-13T13:24:15;23.70;93.00
12853;DHT22;6495;51.808;7.478;2023-07-13T13:26:45;23.50;93.60
12853;DHT22;6495;51.808;7.478;2023-07-13T13:29:16;23.20;94.00
12853;DHT22;6495;51.808;7.478;2023-07-13T13:31:47;23.00;93.80
12853;DHT22;6495;51.808;7.478;2023-07-13T13:34:18;22.90;94.20
12853;DHT22;6495;51.808;7.478;2023-07-13T13:36:50;22.70;94.20
12853;DHT22;6495;51.808;7.478;2023-07-13T13:39:29;22.50;94.40
12853;DHT22;6495;51.808;7.478;2023-07-13T13:42:00;22.40;94.70
12853;DHT22;6495;51.808;7.478;2023-07-13T13:44:29;22.30;94.70
12853;DHT22;6495;51.808;7.478;2023-07-13T13:46:57;22.10;94.70
12853;DHT22;6495;51.808;7.478;2023-07-13T13:49:29;22.00;95.00
12853;DHT22;6495;51.808;7.478;2023-07-13T13:51:58;21.90;95.30
12853;DHT22;6495;51.808;7.478;2023-07-13T13:54:27;21.80;95.50
12853;DHT22;6495;51.808;7.478;2023-07-13T13:56:55;21.70;95.90
12853;DHT22;6495;51.808;7.478;2023-07-13T13:59:26;21.60;96.00
12853;DHT22;6495;51.808;7.478;2023-07-13T14:01:55;21.50;96.00
12853;DHT22;6495;51.808;7.478;2023-07-13T14:04:28;21.50;96.10
12853;DHT22;6495;51.808;7.478;2023-07-13T14:06:56;21.50;96.20
12853;DHT22;6495;51.808;7.478;2023-07-13T14:09:25;21.40;96.50
12853;DHT22;6495;51.808;7.478;2023-07-13T14:11:53;21.40;96.70
12853;DHT22;6495;51.808;7.478;2023-07-13T14:14:24;21.30;96.70
12853;DHT22;6495;51.808;7.478;2023-07-13T14:16:54;21.30;96.90
12853;DHT22;6495;51.808;7.478;2023-07-13T14:19:24;21.20;97.20
12853;DHT22;6495;51.808;7.478;2023-07-13T14:21:54;21.20;97.50
12853;DHT22;6495;51.808;7.478;2023-07-13T14:24:23;21.20;97.70
12853;DHT22;6495;51.808;7.478;2023-07-13T14:26:51;21.20;97.90
12853;DHT22;6495;51.808;7.478;2023-07-13T14:29:20;21.20;98.20
12853;DHT22;6495;51.808;7.478;2023-07-13T14:31:51;21.10;98.30
12853;DHT22;6495;51.808;7.478;2023-07-13T14:34:20;21.10;98.30
12853;DHT22;6495;51.808;7.478;2023-07-13T14:36:50;21.10;98.50
12853;DHT22;6495;51.808;7.478;2023-07-13T14:39:23;21.10;98.40
12853;DHT22;6495;51.808;7.478;2023-07-13T14:41:52;21.10;98.30
12853;DHT22;6495;51.808;7.478;2023-07-13T14:44:26;21.10;98.50
12853;DHT22;6495;51.808;7.478;2023-07-13T14:46:57;21.20;98.80
12853;DHT22;6495;51.808;7.478;2023-07-13T14:49:29;21.20;99.00
12853;DHT22;6495;51.808;7.478;2023-07-13T14:52:01;21.20;99.10
12853;DHT22;6495;51.808;7.478;2023-07-13T14:54:34;21.30;99.00
12853;DHT22;6495;51.808;7.478;2023-07-13T14:57:10;21.40;98.90
12853;DHT22;6495;51.808;7.478;2023-07-13T14:59:39;21.40;99.00
12853;DHT22;6495;51.808;7.478;2023-07-13T15:02:16;21.50;98.80
12853;DHT22;6495;51.808;7.478;2023-07-13T15:04:51;21.50;98.70
12853;DHT22;6495;51.808;7.478;2023-07-13T15:07:21;21.60;98.80
12853;DHT22;6495;51.808;7.478;2023-07-13T15:09:51;21.60;99.00
12853;DHT22;6495;51.808;7.478;2023-07-13T15:12:21;21.70;99.10
12853;DHT22;6495;51.808;7.478;2023-07-13T15:14:50;21.70;99.10
12853;DHT22;6495;51.808;7.478;2023-07-13T15:17:28;21.70;99.10
12853;DHT22;6495;51.808;7.478;2023-07-13T15:20:13;21.80;99.20
12853;DHT22;6495;51.808;7.478;2023-07-13T15:22:46;21.80;99.10
12853;DHT22;6495;51.808;7.478;2023-07-13T15:25:19;21.90;99.20
12853;DHT22;6495;51.808;7.478;2023-07-13T15:27:49;21.90;99.30
12853;DHT22;6495;51.808;7.478;2023-07-13T15:30:18;21.90;99.30
12853;DHT22;6495;51.808;7.478;2023-07-13T15:32:47;22.00;99.20
12853;DHT22;6495;51.808;7.478;2023-07-13T15:35:19;22.00;99.40
12853;DHT22;6495;51.808;7.478;2023-07-13T15:37:49;22.10;99.30
12853;DHT22;6495;51.808;7.478;2023-07-13T15:40:19;22.10;99.30
12853;DHT22;6495;51.808;7.478;2023-07-13T15:42:48;22.20;99.40
12853;DHT22;6495;51.808;7.478;2023-07-13T15:45:19;22.30;99.40
12853;DHT22;6495;51.808;7.478;2023-07-13T15:47:49;22.40;99.40
12853;DHT22;6495;51.808;7.478;2023-07-13T15:50:19;22.50;99.50
12853;DHT22;6495;51.808;7.478;2023-07-13T15:52:52;22.60;99.50
12853;DHT22;6495;51.808;7.478;2023-07-13T15:55:23;22.70;99.40
12853;DHT22;6495;51.808;7.478;2023-07-13T15:57:52;22.80;99.30
12853;DHT22;6495;51.808;7.478;2023-07-13T16:00:22;22.80;99.20
12853;DHT22;6495;51.808;7.478;2023-07-13T16:02:52;22.90;99.10
12853;DHT22;6495;51.808;7.478;2023-07-13T16:05:23;22.90;98.90
12853;DHT22;6495;51.808;7.478;2023-07-13T16:07:52;23.00;98.90
12853;DHT22;6495;51.808;7.478;2023-07-13T16:10:31;23.00;98.80
12853;DHT22;6495;51.808;7.478;2023-07-13T16:13:02;23.00;98.90